Time;durP1;ratioP1;P1;durP2;ratioP2;P2;SDS_P1;SDS_P2;PMS_P1;PMS_P2;Temp;Humidity;BMP_temperature;BMP_pressure;BME280_temperature;BME280_humidity;BME280_pressure;Samples;Min_cycle;Max_cycle;Signal;HPM_P1;HPM_P2
2022/09/27 00:01:00;;;;;;;;;2.33;1.00;;;;;12.50;72.18;99764.03;5113362;27;45324;-54
2022/09/27 00:03:27;;;;;;;;;1.00;1.00;;;;;12.50;72.10;99753.38;5088749;27;45460;-58
2022/09/27 00:06:17;;;;;;;;;3.00;1.00;;;;;12.52;72.42;99762.13;5076004;28;45480;-55
2022/09/27 00:08:43;;;;;;;;;3.00;1.00;;;;;12.52;71.83;99760.31;5078879;28;45751;-57
2022/09/27 00:11:27;;;;;;;;;1.33;1.33;;;;;12.48;71.41;99761.50;5080475;27;45412;-58
2022/09/27 00:13:56;;;;;;;;;5.33;2.67;;;;;12.48;71.24;99766.00;5096440;27;45470;-58
2022/09/27 00:16:24;;;;;;;;;1.00;1.00;;;;;12.38;71.78;99750.72;5080037;27;45433;-58
2022/09/27 00:18:50;;;;;;;;;1.00;1.00;;;;;12.45;71.16;99760.91;5095310;27;45394;-59
2022/09/27 00:21:15;;;;;;;;;0.00;0.00;;;;;12.45;71.08;99755.56;5081283;27;45813;-58
2022/09/27 00:23:41;;;;;;;;;1.33;1.33;;;;;12.43;71.28;99761.03;5081032;28;45685;-57
2022/09/27 00:26:09;;;;;;;;;1.00;1.00;;;;;12.43;71.61;99762.84;5080648;27;46433;-53
2022/09/27 00:28:35;;;;;;;;;1.00;1.00;;;;;12.38;71.51;99764.06;5079729;27;45390;-59
2022/09/27 00:31:00;;;;;;;;;2.00;1.00;;;;;12.40;71.68;99774.59;5081307;27;45649;-60
2022/09/27 00:33:26;;;;;;;;;0.33;0.33;;;;;12.36;71.63;99773.13;5081124;27;45314;-56
2022/09/27 00:35:52;;;;;;;;;2.33;0.33;;;;;12.40;71.94;99769.25;5081016;27;46369;-61
2022/09/27 00:38:17;;;;;;;;;3.00;2.00;;;;;12.47;71.54;99780.28;5096635;27;45437;-64
2022/09/27 00:40:43;;;;;;;;;2.00;1.00;;;;;12.50;71.95;99796.06;5080130;27;45317;-58
2022/09/27 00:43:19;;;;;;;;;2.00;1.00;;;;;12.50;72.32;99790.72;5079032;27;45275;-52
2022/09/27 00:45:50;;;;;;;;;1.00;1.00;;;;;12.46;72.62;99781.25;5078518;28;45512;-55
2022/09/27 00:48:20;;;;;;;;;1.33;1.33;;;;;12.50;72.91;99794.28;5076861;28;45491;-62
2022/09/27 00:50:49;;;;;;;;;2.00;1.00;;;;;12.50;72.81;99796.06;5095225;27;45275;-62
2022/09/27 00:53:20;;;;;;;;;6.33;2.00;;;;;12.50;73.09;99791.59;5080225;27;45490;-60
2022/09/27 00:55:58;;;;;;;;;1.00;1.00;;;;;12.50;73.64;99796.94;5079724;28;46438;-62
2022/09/27 00:58:31;;;;;;;;;4.00;1.00;;;;;12.48;72.86;99793.50;5076797;27;45458;-56
2022/09/27 01:01:01;;;;;;;;;2.67;2.00;;;;;12.39;73.37;99795.09;5079202;27;45269;-53
2022/09/27 01:03:56;;;;;;;;;1.33;1.33;;;;;12.37;73.80;99789.03;5079585;27;45426;-60
2022/09/27 01:06:22;;;;;;;;;4.00;1.00;;;;;12.39;73.49;99805.75;5068027;28;46338;-58
2022/09/27 01:08:48;;;;;;;;;3.00;1.33;;;;;12.37;73.94;99802.34;5061803;28;46117;-61
2022/09/27 01:11:25;;;;;;;;;3.00;2.00;;;;;12.30;73.90;99797.59;5080067;27;45240;-56
2022/09/27 01:14:15;;;;;;;;;1.00;1.00;;;;;12.35;74.00;99808.75;5080082;27;45417;-58
2022/09/27 01:16:56;;;;;;;;;1.00;1.00;;;;;12.33;73.52;99806.19;5079177;27;45479;-59
2022/09/27 01:19:39;;;;;;;;;1.67;1.33;;;;;12.30;74.31;99801.09;5079133;27;45207;-59
2022/09/27 01:22:17;;;;;;;;;2.00;2.00;;;;;12.30;73.71;99806.44;5079467;28;45240;-57
2022/09/27 01:25:01;;;;;;;;;1.00;1.00;;;;;12.29;74.06;99810.06;5078028;28;45263;-60
2022/09/27 01:28:00;;;;;;;;;2.00;0.33;;;;;12.30;74.18;99809.09;5079144;27;45368;-57
2022/09/27 01:30:30;;;;;;;;;1.00;1.00;;;;;12.29;73.82;99810.06;5093480;27;45512;-60
2022/09/27 01:33:11;;;;;;;;;3.00;1.00;;;;;12.26;74.24;99807.63;5078971;28;45228;-58
2022/09/27 01:35:36;;;;;;;;;3.00;1.67;;;;;12.24;73.30;99814.91;5078775;27;45396;-58
2022/09/27 01:38:22;;;;;;;;;1.00;1.00;;;;;12.24;73.86;99817.56;5079047;28;45634;-57
2022/09/27 01:41:16;;;;;;;;;1.00;1.00;;;;;12.25;74.22;99816.59;5079489;27;45452;-57
2022/09/27 01:43:56;;;;;;;;;1.00;1.00;;;;;12.22;74.03;99814.16;5079177;27;45330;-59
2022/09/27 01:46:38;;;;;;;;;4.00;1.00;;;;;12.19;74.04;99809.06;5093683;27;45570;-55
2022/09/27 01:49:10;;;;;;;;;1.33;1.33;;;;;12.13;74.24;99804.19;5077328;27;46178;-56
2022/09/27 01:51:46;;;;;;;;;0.67;0.67;;;;;12.14;74.00;99805.91;5077108;27;45436;-58
2022/09/27 01:54:17;;;;;;;;;1.00;1.00;;;;;12.16;74.16;99814.63;5078356;28;45382;-58
2022/09/27 01:56:56;;;;;;;;;0.33;0.33;;;;;12.17;74.25;99815.47;5094260;27;45478;-60
2022/09/27 01:59:28;;;;;;;;;0.00;0.00;;;;;12.17;74.62;99815.47;5076480;28;46225;-61
2022/09/27 02:01:59;;;;;;;;;0.67;0.33;;;;;12.17;74.33;99819.00;5093652;27;45414;-57
2022/09/27 02:04:30;;;;;;;;;2.00;2.00;;;;;12.15;74.47;99817.41;5077413;27;45440;-60
2022/09/27 02:07:03;;;;;;;;;0.00;0.00;;;;;12.16;74.28;99819.09;5078469;28;45378;-61
2022/09/27 02:09:36;;;;;;;;;1.00;0.33;;;;;12.14;73.84;99816.56;5078108;28;45330;-61
2022/09/27 02:12:08;;;;;;;;;0.00;0.00;;;;;12.14;74.26;99816.56;5078619;28;45346;-63
2022/09/27 02:14:43;;;;;;;;;1.00;1.00;;;;;12.14;74.07;99816.56;5078657;27;45389;-60
2022/09/27 02:17:57;;;;;;;;;0.00;0.00;;;;;12.13;73.78;99814.00;5078375;27;45342;-59
2022/09/27 02:20:30;;;;;;;;;1.00;1.00;;;;;12.13;73.72;99812.19;5071317;28;45774;-58
2022/09/27 02:23:21;;;;;;;;;1.33;1.00;;;;;12.13;74.16;99806.88;5077394;27;45432;-60
2022/09/27 02:26:20;;;;;;;;;0.67;0.67;;;;;12.09;74.33;99797.38;5078591;27;45321;-62
2022/09/27 02:28:56;;;;;;;;;1.00;1.00;;;;;12.14;73.86;99810.38;5077034;27;45435;-59
2022/09/27 02:31:22;;;;;;;;;0.33;0.33;;;;;12.13;73.73;99798.03;5077998;28;46340;-62
2022/09/27 02:33:54;;;;;;;;;0.67;0.67;;;;;12.12;73.67;99802.50;5078005;27;45838;-59
2022/09/27 02:36:20;;;;;;;;;2.67;0.67;;;;;12.09;73.83;99800.03;5076029;27;45448;-52
2022/09/27 02:38:46;;;;;;;;;1.00;1.00;;;;;12.09;73.60;99795.56;5077293;27;45531;-53
2022/09/27 02:41:17;;;;;;;;;0.00;0.00;;;;;12.14;73.84;99805.91;5077494;27;46164;-52
2022/09/27 02:43:45;;;;;;;;;3.00;1.00;;;;;12.10;73.30;99807.06;5092269;27;45399;-58
2022/09/27 02:46:42;;;;;;;;;0.33;0.33;;;;;12.12;74.14;99813.16;5077738;27;45338;-54
2022/09/27 02:49:26;;;;;;;;;2.00;1.00;;;;;12.14;74.15;99805.06;5078489;28;45268;-60
2022/09/27 02:52:10;;;;;;;;;1.00;1.00;;;;;12.10;74.20;99805.25;5078030;28;45644;-63
2022/09/27 02:55:09;;;;;;;;;1.00;1.00;;;;;12.07;74.57;99802.81;5078460;28;45436;-57
2022/09/27 02:57:47;;;;;;;;;1.00;1.00;;;;;12.07;75.21;99799.31;5078442;28;45260;-63
2022/09/27 03:00:22;;;;;;;;;0.67;0.67;;;;;12.05;75.42;99803.91;5058738;28;45338;-61
2022/09/27 03:03:14;;;;;;;;;1.00;1.00;;;;;12.05;75.18;99812.75;5073426;27;46326;-56
2022/09/27 03:05:48;;;;;;;;;0.67;0.00;;;;;12.08;75.33;99806.34;5057546;28;45442;-55
2022/09/27 03:08:13;;;;;;;;;0.33;0.33;;;;;12.06;75.07;99801.13;5057398;28;45439;-59
2022/09/27 03:10:39;;;;;;;;;1.33;0.67;;;;;12.06;75.44;99795.78;5073093;28;45235;-60
2022/09/27 03:13:05;;;;;;;;;2.67;1.00;;;;;12.08;75.72;99804.53;5077515;27;45422;-61
2022/09/27 03:15:30;;;;;;;;;1.00;1.00;;;;;12.07;75.73;99793.97;5077563;28;45338;-58
2022/09/27 03:17:56;;;;;;;;;1.00;1.00;;;;;12.12;75.97;99823.81;5078085;27;45334;-53
2022/09/27 03:20:22;;;;;;;;;0.00;0.00;;;;;12.13;77.63;99804.19;5077806;27;45449;-51
2022/09/27 03:22:47;;;;;;;;;1.00;1.00;;;;;12.10;78.17;99799.06;5077403;27;45822;-56
2022/09/27 03:25:13;;;;;;;;;1.67;1.67;;;;;12.03;78.42;99795.19;5076297;27;45759;-55
2022/09/27 03:27:38;;;;;;;;;2.00;0.00;;;;;11.99;78.77;99797.25;5077042;27;45253;-59
2022/09/27 03:30:05;;;;;;;;;1.00;1.00;;;;;11.94;79.29;99802.03;5077052;27;45257;-59
2022/09/27 03:32:30;;;;;;;;;1.00;1.00;;;;;11.94;78.85;99803.84;5076647;27;45476;-61
2022/09/27 03:34:56;;;;;;;;;1.67;1.00;;;;;11.93;79.15;99807.47;5076887;27;45322;-62
2022/09/27 03:37:22;;;;;;;;;1.33;0.00;;;;;11.89;79.42;99804.22;5076958;27;45384;-62
2022/09/27 03:39:47;;;;;;;;;0.00;0.00;;;;;11.90;79.08;99800.56;5077173;27;45330;-61
2022/09/27 03:42:13;;;;;;;;;2.00;1.00;;;;;11.90;79.72;99818.38;5075485;27;45460;-59
2022/09/27 03:44:38;;;;;;;;;1.00;1.00;;;;;11.91;79.53;99806.75;5074093;28;45734;-61
2022/09/27 03:47:03;;;;;;;;;1.00;1.00;;;;;11.88;79.68;99796.31;5077207;27;45350;-56
2022/09/27 03:49:29;;;;;;;;;1.00;1.00;;;;;11.89;79.40;99801.53;5075384;27;45539;-62
2022/09/27 03:51:54;;;;;;;;;2.00;1.00;;;;;11.88;79.37;99793.66;5077075;27;46253;-59
2022/09/27 03:54:20;;;;;;;;;1.00;1.00;;;;;11.88;79.49;99796.31;5076938;27;45173;-59
2022/09/27 03:56:45;;;;;;;;;1.67;0.00;;;;;11.85;79.49;99800.06;5075463;27;45233;-62
2022/09/27 03:59:11;;;;;;;;;1.33;0.33;;;;;11.83;79.47;99788.66;5066491;28;45563;-60
2022/09/27 04:01:37;;;;;;;;;0.00;0.00;;;;;11.82;79.48;99798.47;5052649;28;46898;-61
2022/09/27 04:04:07;;;;;;;;;0.00;0.00;;;;;11.81;79.38;99794.09;5059512;28;45570;-62
2022/09/27 04:06:33;;;;;;;;;0.00;0.00;;;;;11.74;79.59;99787.50;5074672;28;45397;-61
2022/09/27 04:08:59;;;;;;;;;2.00;1.00;;;;;11.73;79.48;99790.28;5076740;27;45253;-58
2022/09/27 04:11:24;;;;;;;;;3.00;1.33;;;;;11.72;79.44;99794.78;5076608;27;46003;-62
2022/09/27 04:13:50;;;;;;;;;1.00;1.00;;;;;11.71;79.41;99793.03;5077363;27;45266;-61
2022/09/27 04:16:15;;;;;;;;;1.00;1.00;;;;;11.70;79.42;99791.34;5077353;27;45280;-63
2022/09/27 04:18:41;;;;;;;;;0.33;0.33;;;;;11.68;79.64;99782.63;5074720;27;45538;-62
2022/09/27 04:21:08;;;;;;;;;2.00;0.33;;;;;11.71;79.47;99786.88;5071308;28;47789;-62
2022/09/27 04:23:33;;;;;;;;;0.00;0.00;;;;;11.70;79.44;99775.34;5071756;28;45267;-62
2022/09/27 04:25:59;;;;;;;;;0.00;0.00;;;;;11.71;79.48;99774.41;5062834;28;45345;-54
2022/09/27 04:28:25;;;;;;;;;1.00;1.00;;;;;11.64;79.48;99762.50;5076572;27;45351;-60
2022/09/27 04:30:50;;;;;;;;;1.33;1.00;;;;;11.78;79.38;99777.47;5074988;27;45451;-55
2022/09/27 04:33:15;;;;;;;;;4.00;1.00;;;;;11.78;79.43;99778.31;5072949;27;45570;-61
2022/09/27 04:38:26;;;;;;;;;2.00;1.00;;;;;11.82;78.74;99779.81;5075424;28;45586;-56
2022/09/27 04:40:51;;;;;;;;;1.00;1.00;;;;;11.82;78.97;99771.81;5075924;27;45354;-64
2022/09/27 04:43:17;;;;;;;;;3.00;1.00;;;;;11.87;78.47;99781.31;5076546;27;45352;-62
2022/09/27 04:45:43;;;;;;;;;2.00;1.00;;;;;11.84;78.64;99762.88;5077277;27;45419;-62
2022/09/27 04:48:09;;;;;;;;;5.33;0.67;;;;;11.91;78.73;99770.31;5077804;27;45511;-57
2022/09/27 04:50:34;;;;;;;;;2.33;0.33;;;;;11.95;78.51;99778.91;5076749;28;45714;-61
2022/09/27 04:53:00;;;;;;;;;2.00;0.67;;;;;11.96;78.51;99770.78;5077963;27;45604;-63
2022/09/27 04:55:26;;;;;;;;;0.00;0.00;;;;;11.96;78.69;99781.44;5079781;27;45435;-60
2022/09/27 04:57:52;;;;;;;;;1.33;0.00;;;;;11.99;78.52;99786.56;5080118;27;45254;-62
2022/09/27 05:00:17;;;;;;;;;1.67;0.00;;;;;12.01;78.19;99784.63;5079297;27;45213;-57
2022/09/27 05:02:44;;;;;;;;;1.67;1.67;;;;;12.03;78.03;99784.53;5095728;27;45330;-64
2022/09/27 05:05:10;;;;;;;;;1.67;0.00;;;;;12.03;78.22;99785.38;5095641;27;45378;-57
2022/09/27 05:07:37;;;;;;;;;1.00;1.00;;;;;12.09;78.42;99792.03;5093052;27;45378;-58
2022/09/27 05:10:03;;;;;;;;;0.00;0.00;;;;;12.14;78.38;99803.22;5088946;27;45403;-62
2022/09/27 05:12:29;;;;;;;;;0.67;0.67;;;;;12.15;78.75;99796.94;5090501;27;45338;-63
2022/09/27 05:14:54;;;;;;;;;1.00;0.00;;;;;12.16;79.11;99782.63;5079143;28;45337;-63
2022/09/27 05:17:21;;;;;;;;;1.00;0.00;;;;;12.13;78.90;99785.53;5076805;27;45325;-59
2022/09/27 05:19:47;;;;;;;;;4.00;1.00;;;;;12.10;79.48;99775.94;5077413;27;46131;-57
2022/09/27 05:22:13;;;;;;;;;3.00;1.00;;;;;12.07;77.88;99783.31;5076865;27;45223;-61
2022/09/27 05:24:39;;;;;;;;;0.00;0.00;;;;;12.05;78.44;99780.78;5079151;27;45642;-54
2022/09/27 05:27:07;;;;;;;;;1.00;1.00;;;;;11.99;78.87;99775.91;5093868;27;45522;-64
2022/09/27 05:29:36;;;;;;;;;0.00;0.00;;;;;12.01;79.21;99781.13;5077525;28;45467;-57
2022/09/27 05:32:02;;;;;;;;;0.33;0.33;;;;;11.98;79.75;99784.00;5076796;28;45386;-63
2022/09/27 05:34:28;;;;;;;;;2.33;0.00;;;;;11.94;79.79;99793.19;5077279;27;45528;-61
2022/09/27 05:36:53;;;;;;;;;4.00;1.00;;;;;11.89;79.79;99792.69;5078101;27;45211;-61
2022/09/27 05:39:18;;;;;;;;;1.00;1.00;;;;;11.90;80.17;99802.38;5075302;27;45471;-60
2022/09/27 05:41:45;;;;;;;;;3.00;2.00;;;;;11.87;80.18;99802.63;5079364;27;45510;-58
2022/09/27 05:44:12;;;;;;;;;1.00;1.00;;;;;11.86;80.26;99800.94;5094691;27;45412;-60
2022/09/27 05:46:38;;;;;;;;;1.00;1.00;;;;;11.85;80.14;99792.09;5077601;27;45626;-56
2022/09/27 05:49:04;;;;;;;;;0.67;0.67;;;;;11.85;80.19;99783.22;5078528;27;45440;-53
2022/09/27 05:51:30;;;;;;;;;1.00;1.00;;;;;11.87;80.43;99787.50;5078447;27;45303;-57
2022/09/27 05:53:55;;;;;;;;;0.33;0.33;;;;;11.78;80.18;99772.16;5078579;27;45402;-61
2022/09/27 05:56:21;;;;;;;;;0.33;0.00;;;;;11.91;80.49;99783.63;5076975;27;45476;-62
2022/09/27 05:58:46;;;;;;;;;1.00;1.00;;;;;11.89;80.35;99764.25;5078521;27;46605;-63
2022/09/27 06:01:12;;;;;;;;;2.00;0.67;;;;;11.92;80.40;99763.16;5076991;27;45389;-62
2022/09/27 06:03:39;;;;;;;;;2.67;1.00;;;;;12.00;79.97;99772.28;5078040;27;45254;-61
2022/09/27 06:06:09;;;;;;;;;3.00;1.00;;;;;11.99;80.14;99759.09;5077393;28;45487;-61
2022/09/27 06:08:37;;;;;;;;;3.00;1.33;;;;;12.00;79.99;99755.44;5077809;28;46339;-60
2022/09/27 06:11:06;;;;;;;;;3.00;1.67;;;;;12.06;80.04;99781.63;5077941;27;45358;-64
2022/09/27 06:13:35;;;;;;;;;1.00;1.00;;;;;12.05;79.61;99779.94;5077944;28;45356;-60
2022/09/27 06:16:02;;;;;;;;;3.00;1.00;;;;;12.02;79.44;99786.34;5076912;27;45389;-61
2022/09/27 06:18:28;;;;;;;;;7.00;1.00;;;;;12.09;79.57;99792.03;5093384;27;46553;-62
2022/09/27 06:20:53;;;;;;;;;0.33;0.33;;;;;12.10;79.71;99786.59;5077351;27;45157;-60
2022/09/27 06:23:22;;;;;;;;;1.00;1.00;;;;;12.01;79.42;99766.00;5076818;27;45367;-61
2022/09/27 06:25:49;;;;;;;;;2.33;2.00;;;;;12.17;79.16;99781.66;5078208;27;45323;-59
2022/09/27 06:28:16;;;;;;;;;5.00;1.33;;;;;12.17;78.95;99778.16;5078212;27;46422;-57
2022/09/27 06:30:44;;;;;;;;;1.00;1.00;;;;;12.20;78.96;99783.25;5078131;27;45710;-60
2022/09/27 06:33:12;;;;;;;;;0.67;0.67;;;;;12.19;79.11;99782.41;5074100;27;45495;-60
2022/09/27 06:35:38;;;;;;;;;2.00;1.00;;;;;12.19;78.89;99781.56;5093440;27;45598;-58
2022/09/27 06:38:09;;;;;;;;;6.00;1.00;;;;;12.05;79.07;99750.59;5075299;27;45653;-58
2022/09/27 06:40:35;;;;;;;;;3.00;1.00;;;;;12.27;79.18;99782.69;5083235;27;45414;-55
2022/09/27 06:43:02;;;;;;;;;0.67;0.00;;;;;12.30;78.98;99779.78;5087152;27;45569;-59
2022/09/27 06:45:27;;;;;;;;;1.33;0.67;;;;;12.31;79.04;99784.13;5085178;27;45495;-57
2022/09/27 06:47:56;;;;;;;;;1.33;1.00;;;;;12.30;78.26;99774.44;5077009;27;46136;-59
2022/09/27 06:50:24;;;;;;;;;5.33;2.00;;;;;12.33;78.63;99779.53;5069341;27;45746;-57
2022/09/27 06:52:51;;;;;;;;;1.00;1.00;;;;;12.33;78.01;99774.19;5092059;27;45524;-58
2022/09/27 06:55:17;;;;;;;;;3.00;1.67;;;;;12.36;78.31;99779.28;5093544;27;45552;-59
2022/09/27 07:00:27;;;;;;;;;1.00;1.00;;;;;12.48;77.59;99782.84;5098908;27;45459;-60
2022/09/27 07:02:55;;;;;;;;;3.00;1.00;;;;;12.49;77.73;99787.22;5105786;27;45483;-59
2022/09/27 07:05:21;;;;;;;;;1.00;1.00;;;;;12.51;77.64;99789.78;5093776;27;45283;-58
2022/09/27 07:07:50;;;;;;;;;1.00;1.00;;;;;12.46;76.74;99795.44;5057935;28;46089;-59
2022/09/27 07:10:17;;;;;;;;;0.00;0.00;;;;;12.49;76.56;99794.34;5089744;27;45350;-63
2022/09/27 07:12:46;;;;;;;;;1.67;1.67;;;;;12.52;77.13;99797.66;5074486;28;45611;-59
2022/09/27 07:15:12;;;;;;;;;2.33;2.00;;;;;12.59;76.47;99806.03;5085037;27;45258;-59
2022/09/27 07:17:37;;;;;;;;;3.00;1.67;;;;;12.65;76.46;99805.56;5112883;27;46208;-54
2022/09/27 07:20:03;;;;;;;;;1.00;1.00;;;;;12.62;76.41;99800.44;5092756;27;45366;-56
2022/09/27 07:22:34;;;;;;;;;1.00;1.00;;;;;12.72;76.88;99817.44;5082129;27;45388;-60
2022/09/27 07:25:03;;;;;;;;;1.00;1.00;;;;;12.75;75.97;99819.88;5083384;27;45600;-59
2022/09/27 07:27:33;;;;;;;;;7.00;4.33;;;;;12.84;75.66;99824.50;5097411;27;48068;-57
2022/09/27 07:30:04;;;;;;;;;2.00;2.00;;;;;12.88;75.91;99823.28;5085361;27;45454;-55
2022/09/27 07:32:30;;;;;;;;;1.00;1.00;;;;;12.99;75.53;99828.66;5076242;27;45370;-54
2022/09/27 07:34:55;;;;;;;;;2.00;1.00;;;;;13.04;75.54;99841.66;5075304;28;45595;-57
2022/09/27 07:37:20;;;;;;;;;0.67;0.67;;;;;13.02;75.35;99826.69;5072980;28;46984;-58
2022/09/27 07:39:46;;;;;;;;;3.00;1.00;;;;;13.11;75.32;99839.34;5067719;28;45567;-58
2022/09/27 07:42:11;;;;;;;;;3.33;1.00;;;;;13.16;75.03;99842.53;5090961;27;45547;-60
2022/09/27 07:44:38;;;;;;;;;1.00;1.00;;;;;13.17;74.84;99841.53;5075063;27;45492;-60
2022/09/27 07:47:07;;;;;;;;;3.00;1.00;;;;;13.20;74.68;99834.16;5056301;28;47157;-60
2022/09/27 07:49:32;;;;;;;;;3.33;1.00;;;;;13.23;74.92;99825.06;5056274;28;45444;-58
2022/09/27 07:51:58;;;;;;;;;1.67;1.00;;;;;13.27;74.82;99826.50;5056292;28;45310;-59
2022/09/27 07:54:23;;;;;;;;;2.00;2.00;;;;;13.35;74.83;99848.13;5056874;28;45198;-60
2022/09/27 07:56:48;;;;;;;;;3.33;1.67;;;;;13.37;74.61;99846.19;5070404;27;45368;-60
2022/09/27 07:59:14;;;;;;;;;4.00;3.00;;;;;13.47;74.05;99857.84;5084601;27;45452;-59
2022/09/27 08:01:39;;;;;;;;;3.00;3.00;;;;;13.58;73.92;99855.16;5074502;27;45458;-59
2022/09/27 08:04:04;;;;;;;;;1.33;1.00;;;;;13.63;72.54;99848.59;5092158;27;45491;-54
2022/09/27 08:06:30;;;;;;;;;3.00;2.00;;;;;13.69;73.05;99845.44;5076145;27;45515;-59
2022/09/27 08:08:57;;;;;;;;;2.67;1.00;;;;;13.77;72.98;99865.19;5074417;27;45428;-58
2022/09/27 08:11:23;;;;;;;;;2.67;2.33;;;;;13.78;73.03;99861.56;5076890;27;45360;-56
2022/09/27 08:13:51;;;;;;;;;2.00;1.00;;;;;13.80;72.18;99872.13;5068509;27;45364;-56
2022/09/27 08:16:20;;;;;;;;;1.67;1.67;;;;;13.80;72.72;99861.41;5060214;28;45283;-58
2022/09/27 08:18:46;;;;;;;;;1.67;1.67;;;;;13.77;72.22;99853.66;5071343;27;46145;-56
2022/09/27 08:21:11;;;;;;;;;3.00;3.00;;;;;13.79;72.22;99854.38;5082953;27;45700;-54
2022/09/27 08:23:37;;;;;;;;;1.00;1.00;;;;;13.91;72.08;99865.91;5070932;27;45483;-57
2022/09/27 08:26:02;;;;;;;;;1.00;1.00;;;;;13.96;71.16;99859.22;5073150;27;45936;-54
2022/09/27 08:28:28;;;;;;;;;1.00;1.00;;;;;14.05;70.88;99863.78;5077928;27;45491;-55
2022/09/27 08:30:58;;;;;;;;;4.00;1.33;;;;;14.13;71.05;99866.69;5088184;27;45654;-57
2022/09/27 08:33:24;;;;;;;;;0.00;0.00;;;;;14.18;69.94;99866.31;5086052;27;45226;-57
2022/09/27 08:35:50;;;;;;;;;2.00;2.00;;;;;14.30;70.45;99867.13;5081792;27;45573;-55
2022/09/27 08:38:15;;;;;;;;;3.00;1.33;;;;;14.32;69.73;99865.16;5079542;27;45427;-56
2022/09/27 08:41:03;;;;;;;;;0.00;0.00;;;;;14.42;69.22;99872.31;5100675;27;45335;-57
2022/09/27 08:43:44;;;;;;;;;2.00;2.00;;;;;14.51;69.27;99873.41;5113739;27;45334;-57
2022/09/27 08:46:54;;;;;;;;;3.00;1.00;;;;;14.59;68.11;99881.66;5077955;27;46113;-59
2022/09/27 08:49:25;;;;;;;;;4.00;0.00;;;;;14.65;68.49;99883.81;5033348;27;45562;-56
2022/09/27 08:51:54;;;;;;;;;3.67;1.00;;;;;14.65;69.21;99883.81;5081746;27;45545;-58
2022/09/27 08:54:24;;;;;;;;;1.00;1.00;;;;;14.62;68.82;99877.88;5078483;27;45644;-54
2022/09/27 08:56:52;;;;;;;;;1.00;1.00;;;;;14.57;68.60;99886.25;5099617;27;46003;-59
2022/09/27 08:59:21;;;;;;;;;3.00;1.00;;;;;14.54;69.52;99881.16;5085303;27;45464;-56
2022/09/27 09:01:52;;;;;;;;;2.00;2.00;;;;;14.44;68.83;99870.38;5087528;27;45496;-61
2022/09/27 09:04:30;;;;;;;;;0.67;0.67;;;;;14.37;69.54;99868.34;5090851;27;45587;-59
2022/09/27 09:07:26;;;;;;;;;1.33;1.33;;;;;14.36;70.14;99866.63;5075344;27;47285;-58
2022/09/27 09:09:55;;;;;;;;;0.00;0.00;;;;;14.35;69.65;99876.50;5076186;28;45674;-54
2022/09/27 09:12:47;;;;;;;;;1.00;1.00;;;;;14.34;70.10;99884.66;5087502;27;45445;-59
2022/09/27 09:15:13;;;;;;;;;2.00;1.00;;;;;14.32;70.12;99892.81;5085417;27;45333;-57
2022/09/27 09:18:23;;;;;;;;;2.67;0.00;;;;;14.36;70.08;99894.22;5071285;28;46164;-59
2022/09/27 09:20:55;;;;;;;;;1.00;1.00;;;;;14.42;70.40;99887.50;4995754;28;45560;-56
2022/09/27 09:23:41;;;;;;;;;2.00;2.00;;;;;14.43;70.28;99878.50;4996867;28;45477;-59
2022/09/27 09:26:44;;;;;;;;;2.67;1.00;;;;;14.47;69.39;99882.69;5047661;27;45623;-57
2022/09/27 09:29:41;;;;;;;;;0.67;0.67;;;;;14.55;69.21;99877.50;5033370;28;45466;-57
2022/09/27 09:32:27;;;;;;;;;1.00;1.00;;;;;14.58;68.96;99846.97;5032758;28;45624;-58
2022/09/27 09:35:01;;;;;;;;;2.00;2.00;;;;;14.82;68.77;99862.78;5070406;27;45493;-61
2022/09/27 09:37:37;;;;;;;;;1.33;0.67;;;;;14.94;68.05;99869.75;5077490;27;45376;-59
2022/09/27 09:40:31;;;;;;;;;3.00;0.67;;;;;14.99;67.70;99849.66;5059077;28;45268;-57
2022/09/27 09:43:08;;;;;;;;;1.00;1.00;;;;;15.10;67.39;99846.03;5072067;27;45471;-57
2022/09/27 09:45:40;;;;;;;;;3.00;3.00;;;;;15.08;67.10;99834.63;5079969;27;45420;-56
2022/09/27 09:48:11;;;;;;;;;2.00;2.00;;;;;15.17;66.91;99836.50;5073933;28;45401;-60
2022/09/27 09:50:57;;;;;;;;;1.00;1.00;;;;;15.34;66.38;99843.06;5089462;27;46050;-58
2022/09/27 09:53:32;;;;;;;;;1.00;1.00;;;;;15.46;65.53;99838.44;5083152;27;45270;-59
2022/09/27 09:56:16;;;;;;;;;2.33;0.00;;;;;15.29;63.46;99814.00;5069248;27;45362;-59
2022/09/27 09:58:57;;;;;;;;;0.00;0.00;;;;;15.50;63.28;99830.03;5077535;27;45307;-59
2022/09/27 10:01:41;;;;;;;;;1.67;0.00;;;;;15.48;63.31;99828.44;5079761;27;46142;-60
2022/09/27 10:04:21;;;;;;;;;0.00;0.00;;;;;15.55;63.53;99827.78;5077498;27;45450;-59
2022/09/27 10:06:48;;;;;;;;;2.00;0.67;;;;;15.59;62.25;99814.94;5083792;27;45516;-60
2022/09/27 10:09:15;;;;;;;;;1.00;1.00;;;;;15.63;61.57;99817.25;5075808;28;46981;-54
2022/09/27 10:11:45;;;;;;;;;1.00;1.00;;;;;15.60;61.45;99811.31;5088330;27;46173;-61
2022/09/27 10:14:13;;;;;;;;;1.00;0.00;;;;;15.62;61.34;99803.97;5104825;27;45532;-57
2022/09/27 10:16:50;;;;;;;;;1.00;1.00;;;;;15.77;59.78;99801.78;5102841;27;45405;-57
2022/09/27 10:19:25;;;;;;;;;1.00;1.00;;;;;15.98;60.67;99810.53;5089997;27;45649;-55
2022/09/27 10:22:00;;;;;;;;;0.33;0.33;;;;;16.02;58.31;99805.75;5087478;27;46096;-59
2022/09/27 10:24:26;;;;;;;;;1.67;1.67;;;;;16.01;58.84;99798.69;5077837;27;45398;-59
2022/09/27 10:26:58;;;;;;;;;2.00;1.00;;;;;16.03;58.80;99810.13;5076165;28;45693;-58
2022/09/27 10:29:29;;;;;;;;;1.33;1.00;;;;;16.02;59.33;99800.41;5075416;27;45508;-61
2022/09/27 10:31:55;;;;;;;;;0.00;0.00;;;;;16.03;57.99;99797.56;5077660;27;45322;-61
2022/09/27 10:34:32;;;;;;;;;0.00;0.00;;;;;16.09;57.89;99806.88;5077708;27;45362;-61
2022/09/27 10:37:21;;;;;;;;;0.67;0.67;;;;;15.91;57.95;99798.69;5075375;27;45408;-59
2022/09/27 10:39:52;;;;;;;;;0.67;0.67;;;;;15.81;58.08;99808.53;5059553;28;45485;-56
2022/09/27 10:42:37;;;;;;;;;1.00;1.00;;;;;15.74;56.98;99810.06;5069156;27;46165;-59
2022/09/27 10:45:30;;;;;;;;;0.00;0.00;;;;;15.59;58.07;99806.91;5076414;27;45337;-60
2022/09/27 10:48:00;;;;;;;;;2.00;2.00;;;;;15.53;57.49;99815.50;5077654;27;45245;-58
2022/09/27 10:50:31;;;;;;;;;3.00;1.00;;;;;15.44;59.88;99819.00;5074596;27;45381;-55
2022/09/27 10:53:05;;;;;;;;;0.67;0.67;;;;;15.32;60.03;99813.72;5074180;28;46155;-60
2022/09/27 10:55:35;;;;;;;;;1.00;1.00;;;;;15.38;61.33;99823.06;5074621;27;45193;-58
2022/09/27 10:58:01;;;;;;;;;1.00;1.00;;;;;15.34;61.40;99800.19;5081689;27;45382;-56
2022/09/27 11:00:33;;;;;;;;;1.00;1.00;;;;;15.42;63.43;99818.28;5076076;27;45445;-58
2022/09/27 11:03:06;;;;;;;;;1.00;1.00;;;;;15.37;64.85;99812.50;5073807;27;46263;-58
2022/09/27 11:05:37;;;;;;;;;2.00;1.00;;;;;15.38;65.97;99816.88;5085097;27;45332;-58
2022/09/27 11:08:17;;;;;;;;;4.33;1.33;;;;;15.33;66.24;99820.78;5094893;27;45471;-57
2022/09/27 11:10:43;;;;;;;;;2.00;2.00;;;;;15.35;67.43;99809.91;5074145;27;45605;-58
2022/09/27 11:13:15;;;;;;;;;1.67;1.67;;;;;15.37;66.52;99804.44;5076976;27;45198;-56
2022/09/27 11:16:02;;;;;;;;;2.67;1.00;;;;;15.27;67.26;99799.06;5090041;27;45260;-57
2022/09/27 11:18:31;;;;;;;;;2.33;1.33;;;;;15.23;65.99;99802.97;5074887;27;45430;-58
2022/09/27 11:21:34;;;;;;;;;1.00;1.00;;;;;15.18;66.47;99818.59;5089498;27;46190;-56
2022/09/27 11:24:17;;;;;;;;;3.00;1.00;;;;;15.21;66.91;99810.28;5069019;27;46085;-59
2022/09/27 11:26:54;;;;;;;;;2.00;1.00;;;;;15.15;66.49;99809.00;5075458;28;45559;-58
2022/09/27 11:29:38;;;;;;;;;0.33;0.33;;;;;15.15;66.11;99810.84;5079708;27;45498;-52
2022/09/27 11:32:32;;;;;;;;;0.00;0.00;;;;;15.15;65.33;99805.47;5076535;28;45719;-57
2022/09/27 11:35:52;;;;;;;;;2.00;1.00;;;;;15.05;65.78;99808.09;5075678;28;46151;-52
2022/09/27 11:38:30;;;;;;;;;1.00;1.00;;;;;15.00;66.11;99807.66;5013160;28;45943;-54
2022/09/27 11:41:02;;;;;;;;;1.00;1.00;;;;;14.93;66.02;99814.53;5065424;28;45419;-55
2022/09/27 11:43:36;;;;;;;;;2.00;0.00;;;;;14.94;66.63;99809.03;5081908;27;45604;-57
2022/09/27 11:46:23;;;;;;;;;1.00;1.00;;;;;14.96;66.24;99808.91;5105808;27;47888;-53
2022/09/27 11:49:07;;;;;;;;;2.33;1.33;;;;;15.01;65.76;99804.00;5095099;27;45397;-51
2022/09/27 11:52:10;;;;;;;;;2.00;1.00;;;;;15.13;65.42;99796.75;5093319;27;45300;-54
2022/09/27 11:54:50;;;;;;;;;2.67;1.00;;;;;15.23;64.26;99785.06;5061070;27;45650;-56
2022/09/27 11:57:30;;;;;;;;;3.00;1.00;;;;;15.29;63.37;99781.84;5071778;28;46517;-56
2022/09/27 12:00:22;;;;;;;;;2.33;1.00;;;;;15.55;63.45;99776.00;5079658;27;45544;-53
2022/09/27 12:03:00;;;;;;;;;2.00;1.00;;;;;15.62;63.09;99777.16;5078000;27;45455;-57